Eagle Kuching — 9V8132 — position and weather

sailwx.info

Track history (hours):
 
Tides and Currents Weather Stations Pressure Air Temp Water Temp Dewpoint Dewpoint Depression Visibility Wind Speed Wind Dir Waves Ship Positions

Eagle Kuching

Last reported at 2018-Feb-20 04:39 UTC. Time now 2018-Feb-20 12:07 UTC.
Position N 54°43' W 001°04'.

Length 243 m; draft 9 m.

Type: Tanker. MMSI: 565108000.

Date/timePositionNaut miles runAvg speedWind from/ knotsBaromVisibWave heightAir tempDewpointWater temp
2018-Feb-20 04:39N 54°43' W 001°04'0 0.7
2018-Feb-20 04:30N 54°43' W 001°04'3 6.8
2018-Feb-20 04:00N 54°45' W 001°08'0 0.3
2018-Feb-20 03:30N 54°45' W 001°08'1 2.5
2018-Feb-20 02:56N 54°47' W 001°09'0 0.0
2018-Feb-20 02:31N 54°47' W 001°09'0 0.0
2018-Feb-20 01:52N 54°47' W 001°09'0 0.0
2018-Feb-20 00:52N 54°46' W 001°09'0 0.0
2018-Feb-20 00:13N 54°46' W 001°10'0 0.0
2018-Feb-19 23:58N 54°46' W 001°10'0 0.0
2018-Feb-19 23:28N 54°46' W 001°10'0 0.1
2018-Feb-19 22:51N 54°46' W 001°10'0 0.0
2018-Feb-19 22:30N 54°46' W 001°10'0 0.1
2018-Feb-19 21:58N 54°46' W 001°10'0 0.2
2018-Feb-19 21:31N 54°46' W 001°09'0 0.1
2018-Feb-19 20:58N 54°46' W 001°09'0 0.0
2018-Feb-19 20:28N 54°46' W 001°09'0 0.1
2018-Feb-19 20:00N 54°46' W 001°09'0 0.0
2018-Feb-19 19:30N 54°46' W 001°09'0 0.0
2018-Feb-19 18:58N 54°46' W 001°09'0 0.0
2018-Feb-19 18:28N 54°46' W 001°09'0 0.0
2018-Feb-19 17:58N 54°46' W 001°09'1 2.4
2018-Feb-19 17:31N 54°46' W 001°08'0 0.0
2018-Feb-19 17:00N 54°46' W 001°08'0 0.6
2018-Feb-19 16:30N 54°46' W 001°08'0 0.0
2018-Feb-19 16:01N 54°46' W 001°08'3 5.9
2018-Feb-19 15:31N 54°44' W 001°05'4 7.6
2018-Feb-19 15:01N 54°46' W 001°09'0 0.2
2018-Feb-19 14:30N 54°46' W 001°09'0 0.0
2018-Feb-19 14:01N 54°46' W 001°09'0 0.2
2018-Feb-19 13:25N 54°46' W 001°09'0 0.1
2018-Feb-19 12:58N 54°46' W 001°10'0 0.1
2018-Feb-19 12:22N 54°46' W 001°10'0 0.0
2018-Feb-19 10:58N 54°47' W 001°09'0 0.2
2018-Feb-19 10:14N 54°47' W 001°09'0 0.0
2018-Feb-19 10:01N 54°47' W 001°09'0 0.0
2018-Feb-19 09:31N 54°47' W 001°09'0 0.2
2018-Feb-19 08:58N 54°47' W 001°09'0 0.1
2018-Feb-19 08:16N 54°46' W 001°09'0 0.2
2018-Feb-19 08:00N 54°46' W 001°09'0 0.0
2018-Feb-19 07:30N 54°46' W 001°09'0 0.0
2018-Feb-19 06:58N 54°46' W 001°09'0 0.0
2018-Feb-19 06:28N 54°46' W 001°09'0 0.0
2018-Feb-19 05:49N 54°46' W 001°09'0 0.0
2018-Feb-19 05:19N 54°46' W 001°09'0 0.0
2018-Feb-19 04:49N 54°46' W 001°09'0 0.1
2018-Feb-19 04:22N 54°46' W 001°09'0 0.1
2018-Feb-19 03:52N 54°46' W 001°09'0 0.1
2018-Feb-19 03:22N 54°46' W 001°09'0 0.1
2018-Feb-19 02:52N 54°47' W 001°09'0 0.1
2018-Feb-19 02:22N 54°47' W 001°09'0 0.1
2018-Feb-19 01:52N 54°47' W 001°09'0 0.0
2018-Feb-19 01:25N 54°47' W 001°09'0 0.0
2018-Feb-19 00:55N 54°47' W 001°09'0 0.0
2018-Feb-19 00:25N 54°47' W 001°09'0 0.0
2018-Feb-18 23:52N 54°47' W 001°09'0 0.0
2018-Feb-18 23:10N 54°47' W 001°09'0 0.1
2018-Feb-18 22:55N 54°47' W 001°09'0 0.0
2018-Feb-18 22:28N 54°47' W 001°09'0 0.0
2018-Feb-18 21:58N 54°47' W 001°09'0 0.1
2018-Feb-18 21:28N 54°47' W 001°09'0 0.0
2018-Feb-18 20:58N 54°47' W 001°09'0 0.0
2018-Feb-18 20:28N 54°47' W 001°09'0 0.0
2018-Feb-18 19:58N 54°47' W 001°09'0 0.1
2018-Feb-18 19:28N 54°47' W 001°09'0 0.2
2018-Feb-18 18:58N 54°46' W 001°09'0 0.1
2018-Feb-18 18:28N 54°46' W 001°09'0 0.1
2018-Feb-18 17:58N 54°46' W 001°09'0 0.0
2018-Feb-18 17:28N 54°46' W 001°09'0 0.3
2018-Feb-18 17:00N 54°46' W 001°09'2 3.7
2018-Feb-18 16:30N 54°46' W 001°06'4 7.6
2018-Feb-18 16:00N 54°46' W 000°59'511.0
2018-Feb-18 15:30N 54°46' W 000°50'15910.0
2018-Feb-17 23:40N 53°10' E 002°44'212.3
2018-Feb-17 23:30N 53°08' E 002°43'1211.6
2018-Feb-17 22:28N 52°56' E 002°40'511.3
2018-Feb-17 22:00N 52°51' E 002°40'4611.3
2018-Feb-17 17:58N 52°14' E 003°25'612.6
2018-Feb-17 17:29N 52°11' E 003°34'1 2.1
2018-Feb-17 16:56N 52°11' E 003°36'0 0.0
2018-Feb-17 15:50N 52°11' E 003°36'0 0.0
2018-Feb-17 15:29N 52°11' E 003°36'0 0.0
2018-Feb-17 14:59N 52°11' E 003°36'0 0.0
2018-Feb-17 14:29N 52°11' E 003°36'0 0.0
2018-Feb-17 13:59N 52°11' E 003°36'0 0.3
2018-Feb-17 13:29N 52°11' E 003°36'0 0.3
2018-Feb-17 12:59N 52°11' E 003°36'0 0.1
2018-Feb-17 12:23N 52°11' E 003°36'0 0.0
2018-Feb-17 11:59N 52°11' E 003°36'0 0.0
2018-Feb-17 11:29N 52°11' E 003°36'0 0.0
2018-Feb-17 10:59N 52°11' E 003°36'0 0.0
2018-Feb-17 10:26N 52°11' E 003°36'0 0.0
2018-Feb-17 09:59N 52°11' E 003°36'0 0.0
2018-Feb-17 09:29N 52°11' E 003°36'0 0.0
2018-Feb-17 08:56N 52°11' E 003°36'0 0.0
2018-Feb-17 08:29N 52°11' E 003°36'0 0.1
2018-Feb-17 07:56N 52°11' E 003°36'0 0.2
2018-Feb-17 07:29N 52°11' E 003°36'0 0.2
2018-Feb-17 06:59N 52°11' E 003°36'0 0.1
2018-Feb-17 06:29N 52°11' E 003°36'0 0.1
2018-Feb-17 05:50N 52°11' E 003°36'0 0.1
2018-Feb-17 05:29N 52°11' E 003°36'0 0.0
2018-Feb-17 04:59N 52°11' E 003°36'0 0.0
2018-Feb-17 04:29N 52°11' E 003°36'0 0.0
2018-Feb-17 03:56N 52°11' E 003°36'0 0.0
2018-Feb-17 03:26N 52°11' E 003°36'0 0.0
2018-Feb-17 02:56N 52°11' E 003°36'0 0.0
2018-Feb-17 02:29N 52°11' E 003°36'0 0.0
2018-Feb-17 01:59N 52°11' E 003°36'0 0.1
2018-Feb-17 01:29N 52°11' E 003°36'0 0.3
2018-Feb-17 00:56N 52°11' E 003°36'0 0.1
2018-Feb-17 00:29N 52°11' E 003°36'0 0.1
2018-Feb-16 23:50N 52°11' E 003°36'0 0.0
2018-Feb-16 23:29N 52°11' E 003°36'0 0.0
2018-Feb-16 22:59N 52°11' E 003°36'0 0.0
2018-Feb-16 22:29N 52°11' E 003°36'0 0.0
2018-Feb-16 21:59N 52°11' E 003°36'0 0.0
2018-Feb-16 21:29N 52°11' E 003°36'0 0.0
2018-Feb-16 20:59N 52°11' E 003°36'0 0.0
2018-Feb-16 20:26N 52°11' E 003°36'0 0.1
2018-Feb-16 19:59N 52°11' E 003°36'0 0.2
2018-Feb-16 18:26N 52°11' E 003°36'0 0.1
2018-Feb-16 17:47N 52°11' E 003°36'0 0.0
2018-Feb-16 17:23N 52°11' E 003°36'0 0.0
2018-Feb-16 16:59N 52°11' E 003°36'0 0.0
2018-Feb-16 16:29N 52°11' E 003°36'0 0.0
2018-Feb-16 15:59N 52°11' E 003°36'0 0.1
2018-Feb-16 11:35N 52°11' E 003°36'0 0.1
2018-Feb-16 11:29N 52°11' E 003°36'0 0.1
2018-Feb-16 10:59N 52°11' E 003°36'0 0.1
2018-Feb-16 10:29N 52°10' E 003°36'0 0.0
2018-Feb-16 09:59N 52°10' E 003°36'0 0.0
2018-Feb-16 09:29N 52°10' E 003°36'0 0.0
2018-Feb-16 08:59N 52°10' E 003°36'0 0.1
2018-Feb-16 08:29N 52°10' E 003°36'0 0.0
2018-Feb-16 07:56N 52°11' E 003°36'0 0.0
2018-Feb-16 03:08N 52°11' E 003°36'0 0.0
2018-Feb-16 02:56N 52°11' E 003°36'0 0.0
2018-Feb-15 22:38N 52°11' E 003°36'0 0.2
2018-Feb-15 22:29N 52°11' E 003°36'0 0.2
2018-Feb-15 21:59N 52°11' E 003°36'0 0.1
2018-Feb-15 21:29N 52°11' E 003°36'0 0.1
2018-Feb-15 20:59N 52°11' E 003°36'0 0.0
2018-Feb-15 20:29N 52°11' E 003°36'0 0.0
2018-Feb-15 19:59N 52°11' E 003°36'0 0.1
2018-Feb-15 19:29N 52°11' E 003°36'0 0.2
2018-Feb-15 18:56N 52°11' E 003°36'0 0.1
2018-Feb-15 17:41N 52°11' E 003°36'0 0.1
2018-Feb-15 17:26N 52°11' E 003°36'0 0.0
2018-Feb-15 16:59N 52°11' E 003°36'0 0.0
2018-Feb-15 16:29N 52°11' E 003°36'0 0.0
2018-Feb-15 15:59N 52°11' E 003°36'0 0.0
2018-Feb-15 15:26N 52°11' E 003°36'0 0.0
2018-Feb-15 12:08N 52°11' E 003°36'0 0.1
2018-Feb-15 10:41N 52°11' E 003°36'0 0.5
2018-Feb-15 10:29N 52°11' E 003°36'1 2.8
2018-Feb-15 10:00N 52°11' E 003°34'4 6.9
2018-Feb-15 09:25N 52°07' E 003°34'611.9
2018-Feb-15 08:53N 52°05' E 003°44'411.8
2018-Feb-15 08:31N 52°03' E 003°51'5 9.6
2018-Feb-15 08:00N 52°02' E 003°58'611.4
2018-Feb-15 07:31N 51°58' E 004°05'1 1.4
2018-Feb-15 07:00N 51°58' E 004°04'0 0.0
2018-Feb-15 06:30N 51°58' E 004°04'0 0.0
2018-Feb-15 06:00N 51°58' E 004°04'0 0.0
2018-Feb-15 05:30N 51°58' E 004°04'0 0.0
2018-Feb-15 04:57N 51°58' E 004°04'0 0.0
2018-Feb-15 04:30N 51°58' E 004°04'0 0.0
2018-Feb-15 03:57N 51°58' E 004°04'0 0.0
2018-Feb-15 03:21N 51°58' E 004°04'0 0.0
2018-Feb-15 03:00N 51°58' E 004°04'0 0.0
2018-Feb-15 02:30N 51°58' E 004°04'0 0.0
2018-Feb-15 01:57N 51°58' E 004°04'0 0.0
2018-Feb-15 01:27N 51°58' E 004°04'0 0.0
2018-Feb-15 00:54N 51°58' E 004°04'0 0.0
2018-Feb-15 00:30N 51°58' E 004°04'0 0.0
2018-Feb-15 00:00N 51°58' E 004°04'0 0.0
2018-Feb-14 23:27N 51°58' E 004°04'0 0.0
2018-Feb-14 23:00N 51°58' E 004°04'0 0.0
2018-Feb-14 22:30N 51°58' E 004°04'0 0.0
2018-Feb-14 22:00N 51°58' E 004°04'0 0.0
2018-Feb-14 21:30N 51°58' E 004°04'0 0.0
2018-Feb-14 21:00N 51°58' E 004°04'0 0.0
2018-Feb-14 20:30N 51°58' E 004°04'0 0.0
2018-Feb-14 20:00N 51°58' E 004°04'0 0.0
2018-Feb-14 19:30N 51°58' E 004°04'0 0.0
2018-Feb-14 19:00N 51°58' E 004°04'0 0.0
2018-Feb-14 18:30N 51°58' E 004°04'0 0.0
2018-Feb-14 18:00N 51°58' E 004°04'0 0.0
2018-Feb-14 17:30N 51°58' E 004°04'0 0.0
2018-Feb-14 17:00N 51°58' E 004°04'0 0.0
2018-Feb-14 16:30N 51°58' E 004°04'0 0.0
2018-Feb-14 16:00N 51°58' E 004°04'0 0.0
2018-Feb-14 15:30N 51°58' E 004°04'0 0.0
2018-Feb-14 15:00N 51°58' E 004°04'0 0.0
2018-Feb-14 14:30N 51°58' E 004°04'0 0.0
2018-Feb-14 14:00N 51°58' E 004°04'0 0.0
2018-Feb-14 13:27N 51°58' E 004°04'0 0.0
2018-Feb-14 13:00N 51°58' E 004°04'0 0.0
2018-Feb-14 12:27N 51°58' E 004°04'0 0.0
2018-Feb-14 11:57N 51°58' E 004°04'0 0.0
2018-Feb-14 11:30N 51°58' E 004°04'0 0.0
2018-Feb-14 11:00N 51°58' E 004°04'0 0.0
2018-Feb-14 10:30N 51°58' E 004°04'0 0.0
2018-Feb-14 10:00N 51°58' E 004°04'0 0.0
2018-Feb-14 09:30N 51°58' E 004°04'0 0.0
2018-Feb-14 08:57N 51°58' E 004°04'0 0.0
2018-Feb-14 08:30N 51°58' E 004°04'0 0.0
2018-Feb-14 08:00N 51°58' E 004°04'0 0.0
2018-Feb-14 07:30N 51°58' E 004°04'0 0.0
2018-Feb-14 06:54N 51°58' E 004°04'0 0.0
2018-Feb-14 06:30N 51°58' E 004°04'0 0.0
2018-Feb-14 06:00N 51°58' E 004°04'0 0.0
2018-Feb-14 05:30N 51°58' E 004°04'0 0.0
2018-Feb-14 05:00N 51°58' E 004°04'0 0.0
2018-Feb-14 04:30N 51°58' E 004°04'0 0.0
2018-Feb-14 04:00N 51°58' E 004°04'0 0.0
2018-Feb-14 03:27N 51°58' E 004°04'0 0.0
2018-Feb-14 02:57N 51°58' E 004°04'0 0.0
2018-Feb-14 02:30N 51°58' E 004°04'0 0.0
2018-Feb-14 02:00N 51°58' E 004°04'0 0.0
2018-Feb-14 01:30N 51°58' E 004°04'0 0.0
2018-Feb-14 01:00N 51°58' E 004°04'0 0.0
2018-Feb-14 00:30N 51°58' E 004°04'0 0.0
2018-Feb-13 23:57N 51°58' E 004°04'0 0.0
2018-Feb-13 23:27N 51°58' E 004°04'0 0.0
2018-Feb-13 23:00N 51°58' E 004°04'0 0.0
2018-Feb-13 22:27N 51°58' E 004°04'0 0.0
2018-Feb-13 22:00N 51°58' E 004°04'0 0.0
2018-Feb-13 21:30N 51°58' E 004°04'0 0.0
2018-Feb-13 21:00N 51°58' E 004°04'0 0.0
2018-Feb-13 20:27N 51°58' E 004°04'0 0.0
2018-Feb-13 20:00N 51°58' E 004°04'0 0.0
2018-Feb-13 19:27N 51°58' E 004°04'0 0.0
2018-Feb-13 18:57N 51°58' E 004°04'0 0.0
2018-Feb-13 18:30N 51°58' E 004°04'0 0.0
2018-Feb-13 18:00N 51°58' E 004°04'0 0.0
2018-Feb-13 17:30N 51°58' E 004°04'0 0.0
2018-Feb-13 17:00N 51°58' E 004°04'0 0.0
2018-Feb-13 16:24N 51°58' E 004°04'0 0.0
2018-Feb-13 16:00N 51°58' E 004°04'0 0.0
2018-Feb-13 15:30N 51°58' E 004°04'0 0.0
2018-Feb-13 14:54N 51°58' E 004°04'0 0.0
2018-Feb-13 14:30N 51°58' E 004°04'1 1.3
2018-Feb-13 14:01N 51°58' E 004°05'3 5.8
2018-Feb-13 13:30N 51°60' E 004°01'510.5
2018-Feb-13 13:00N 52°00' E 003°53'4 7.9
2018-Feb-13 12:30N 51°59' E 003°47'3 5.8
2018-Feb-13 12:00N 51°59' E 003°42'3 6.3
2018-Feb-13 11:30N 51°58' E 003°37'2 0.4
2018-Feb-13 07:22N 51°56' E 003°37'0 0.2
2018-Feb-13 06:55N 51°56' E 003°37'0 0.2
2018-Feb-13 06:25N 51°56' E 003°37'0 0.3
2018-Feb-13 05:58N 51°56' E 003°37'0 0.2
2018-Feb-13 05:25N 51°56' E 003°37'0 0.1
2018-Feb-13 04:58N 51°56' E 003°37'0 0.0
2018-Feb-13 04:28N 51°56' E 003°37'0 0.0
2018-Feb-13 03:58N 51°56' E 003°37'0 0.0
2018-Feb-13 03:25N 51°56' E 003°37'0 0.0
2018-Feb-12 21:10N 51°56' E 003°37'0 0.1
2018-Feb-12 20:58N 51°56' E 003°37'0 0.0
2018-Feb-12 18:25N 51°56' E 003°37'0 0.1
2018-Feb-12 17:58N 51°56' E 003°37'0 0.2
2018-Feb-12 17:10N 51°56' E 003°37'0 0.0
2018-Feb-12 08:04N 51°56' E 003°37'0 0.1
2018-Feb-12 07:58N 51°56' E 003°37'0 0.1
2018-Feb-12 07:01N 51°56' E 003°37'0 0.0
2018-Feb-12 06:55N 51°56' E 003°37'0 0.1
2018-Feb-12 04:01N 51°56' E 003°37'0 0.1
2018-Feb-12 03:52N 51°56' E 003°37'0 0.0
2018-Feb-11 17:25N 51°56' E 003°37'0 0.0
2018-Feb-11 07:57N 51°56' E 003°37'  
Track history (hours):
 
Tides and Currents Weather Stations Pressure Air Temp Water Temp Dewpoint Dewpoint Depression Visibility Wind Speed Wind Dir Waves Ship Positions

Eagle Kuching

Last reported at 2018-Feb-20 04:39 UTC. Time now 2018-Feb-20 12:07 UTC.
Position N 54°43' W 001°04'.

Length 243 m; draft 9 m.

Type: Tanker. MMSI: 565108000.

Date/timePositionNaut miles runAvg speedWind from/ knotsBaromVisibWave heightAir tempDewpointWater temp
2018-Feb-20 04:39N 54°43' W 001°04'0 0.7
2018-Feb-20 04:30N 54°43' W 001°04'3 6.8
2018-Feb-20 04:00N 54°45' W 001°08'0 0.3
2018-Feb-20 03:30N 54°45' W 001°08'1 2.5
2018-Feb-20 02:56N 54°47' W 001°09'0 0.0
2018-Feb-20 02:31N 54°47' W 001°09'0 0.0
2018-Feb-20 01:52N 54°47' W 001°09'0 0.0
2018-Feb-20 00:52N 54°46' W 001°09'0 0.0
2018-Feb-20 00:13N 54°46' W 001°10'0 0.0
2018-Feb-19 23:58N 54°46' W 001°10'0 0.0
2018-Feb-19 23:28N 54°46' W 001°10'0 0.1
2018-Feb-19 22:51N 54°46' W 001°10'0 0.0
2018-Feb-19 22:30N 54°46' W 001°10'0 0.1
2018-Feb-19 21:58N 54°46' W 001°10'0 0.2
2018-Feb-19 21:31N 54°46' W 001°09'0 0.1
2018-Feb-19 20:58N 54°46' W 001°09'0 0.0
2018-Feb-19 20:28N 54°46' W 001°09'0 0.1
2018-Feb-19 20:00N 54°46' W 001°09'0 0.0
2018-Feb-19 19:30N 54°46' W 001°09'0 0.0
2018-Feb-19 18:58N 54°46' W 001°09'0 0.0
2018-Feb-19 18:28N 54°46' W 001°09'0 0.0
2018-Feb-19 17:58N 54°46' W 001°09'1 2.4
2018-Feb-19 17:31N 54°46' W 001°08'0 0.0
2018-Feb-19 17:00N 54°46' W 001°08'0 0.6
2018-Feb-19 16:30N 54°46' W 001°08'0 0.0
2018-Feb-19 16:01N 54°46' W 001°08'3 5.9
2018-Feb-19 15:31N 54°44' W 001°05'4 7.6
2018-Feb-19 15:01N 54°46' W 001°09'0 0.2
2018-Feb-19 14:30N 54°46' W 001°09'0 0.0
2018-Feb-19 14:01N 54°46' W 001°09'0 0.2
2018-Feb-19 13:25N 54°46' W 001°09'0 0.1
2018-Feb-19 12:58N 54°46' W 001°10'0 0.1
2018-Feb-19 12:22N 54°46' W 001°10'0 0.0
2018-Feb-19 10:58N 54°47' W 001°09'0 0.2
2018-Feb-19 10:14N 54°47' W 001°09'0 0.0
2018-Feb-19 10:01N 54°47' W 001°09'0 0.0
2018-Feb-19 09:31N 54°47' W 001°09'0 0.2
2018-Feb-19 08:58N 54°47' W 001°09'0 0.1
2018-Feb-19 08:16N 54°46' W 001°09'0 0.2
2018-Feb-19 08:00N 54°46' W 001°09'0 0.0
2018-Feb-19 07:30N 54°46' W 001°09'0 0.0
2018-Feb-19 06:58N 54°46' W 001°09'0 0.0
2018-Feb-19 06:28N 54°46' W 001°09'0 0.0
2018-Feb-19 05:49N 54°46' W 001°09'0 0.0
2018-Feb-19 05:19N 54°46' W 001°09'0 0.0
2018-Feb-19 04:49N 54°46' W 001°09'0 0.1
2018-Feb-19 04:22N 54°46' W 001°09'0 0.1
2018-Feb-19 03:52N 54°46' W 001°09'0 0.1
2018-Feb-19 03:22N 54°46' W 001°09'0 0.1
2018-Feb-19 02:52N 54°47' W 001°09'0 0.1
2018-Feb-19 02:22N 54°47' W 001°09'0 0.1
2018-Feb-19 01:52N 54°47' W 001°09'0 0.0
2018-Feb-19 01:25N 54°47' W 001°09'0 0.0
2018-Feb-19 00:55N 54°47' W 001°09'0 0.0
2018-Feb-19 00:25N 54°47' W 001°09'0 0.0
2018-Feb-18 23:52N 54°47' W 001°09'0 0.0
2018-Feb-18 23:10N 54°47' W 001°09'0 0.1
2018-Feb-18 22:55N 54°47' W 001°09'0 0.0
2018-Feb-18 22:28N 54°47' W 001°09'0 0.0
2018-Feb-18 21:58N 54°47' W 001°09'0 0.1
2018-Feb-18 21:28N 54°47' W 001°09'0 0.0
2018-Feb-18 20:58N 54°47' W 001°09'0 0.0
2018-Feb-18 20:28N 54°47' W 001°09'0 0.0
2018-Feb-18 19:58N 54°47' W 001°09'0 0.1
2018-Feb-18 19:28N 54°47' W 001°09'0 0.2
2018-Feb-18 18:58N 54°46' W 001°09'0 0.1
2018-Feb-18 18:28N 54°46' W 001°09'0 0.1
2018-Feb-18 17:58N 54°46' W 001°09'0 0.0
2018-Feb-18 17:28N 54°46' W 001°09'0 0.3
2018-Feb-18 17:00N 54°46' W 001°09'2 3.7
2018-Feb-18 16:30N 54°46' W 001°06'4 7.6
2018-Feb-18 16:00N 54°46' W 000°59'511.0
2018-Feb-18 15:30N 54°46' W 000°50'15910.0
2018-Feb-17 23:40N 53°10' E 002°44'212.3
2018-Feb-17 23:30N 53°08' E 002°43'1211.6
2018-Feb-17 22:28N 52°56' E 002°40'511.3
2018-Feb-17 22:00N 52°51' E 002°40'4611.3
2018-Feb-17 17:58N 52°14' E 003°25'612.6
2018-Feb-17 17:29N 52°11' E 003°34'1 2.1
2018-Feb-17 16:56N 52°11' E 003°36'0 0.0
2018-Feb-17 15:50N 52°11' E 003°36'0 0.0
2018-Feb-17 15:29N 52°11' E 003°36'0 0.0
2018-Feb-17 14:59N 52°11' E 003°36'0 0.0
2018-Feb-17 14:29N 52°11' E 003°36'0 0.0
2018-Feb-17 13:59N 52°11' E 003°36'0 0.3
2018-Feb-17 13:29N 52°11' E 003°36'0 0.3
2018-Feb-17 12:59N 52°11' E 003°36'0 0.1
2018-Feb-17 12:23N 52°11' E 003°36'0 0.0
2018-Feb-17 11:59N 52°11' E 003°36'0 0.0
2018-Feb-17 11:29N 52°11' E 003°36'0 0.0
2018-Feb-17 10:59N 52°11' E 003°36'0 0.0
2018-Feb-17 10:26N 52°11' E 003°36'0 0.0
2018-Feb-17 09:59N 52°11' E 003°36'0 0.0
2018-Feb-17 09:29N 52°11' E 003°36'0 0.0
2018-Feb-17 08:56N 52°11' E 003°36'0 0.0
2018-Feb-17 08:29N 52°11' E 003°36'0 0.1
2018-Feb-17 07:56N 52°11' E 003°36'0 0.2
2018-Feb-17 07:29N 52°11' E 003°36'0 0.2
2018-Feb-17 06:59N 52°11' E 003°36'0 0.1
2018-Feb-17 06:29N 52°11' E 003°36'0 0.1
2018-Feb-17 05:50N 52°11' E 003°36'0 0.1
2018-Feb-17 05:29N 52°11' E 003°36'0 0.0
2018-Feb-17 04:59N 52°11' E 003°36'0 0.0
2018-Feb-17 04:29N 52°11' E 003°36'0 0.0
2018-Feb-17 03:56N 52°11' E 003°36'0 0.0
2018-Feb-17 03:26N 52°11' E 003°36'0 0.0
2018-Feb-17 02:56N 52°11' E 003°36'0 0.0
2018-Feb-17 02:29N 52°11' E 003°36'0 0.0
2018-Feb-17 01:59N 52°11' E 003°36'0 0.1
2018-Feb-17 01:29N 52°11' E 003°36'0 0.3
2018-Feb-17 00:56N 52°11' E 003°36'0 0.1
2018-Feb-17 00:29N 52°11' E 003°36'0 0.1
2018-Feb-16 23:50N 52°11' E 003°36'0 0.0
2018-Feb-16 23:29N 52°11' E 003°36'0 0.0
2018-Feb-16 22:59N 52°11' E 003°36'0 0.0
2018-Feb-16 22:29N 52°11' E 003°36'0 0.0
2018-Feb-16 21:59N 52°11' E 003°36'0 0.0
2018-Feb-16 21:29N 52°11' E 003°36'0 0.0
2018-Feb-16 20:59N 52°11' E 003°36'0 0.0
2018-Feb-16 20:26N 52°11' E 003°36'0 0.1
2018-Feb-16 19:59N 52°11' E 003°36'0 0.2
2018-Feb-16 18:26N 52°11' E 003°36'0 0.1
2018-Feb-16 17:47N 52°11' E 003°36'0 0.0
2018-Feb-16 17:23N 52°11' E 003°36'0 0.0
2018-Feb-16 16:59N 52°11' E 003°36'0 0.0
2018-Feb-16 16:29N 52°11' E 003°36'0 0.0
2018-Feb-16 15:59N 52°11' E 003°36'0 0.1
2018-Feb-16 11:35N 52°11' E 003°36'0 0.1
2018-Feb-16 11:29N 52°11' E 003°36'0 0.1
2018-Feb-16 10:59N 52°11' E 003°36'0 0.1
2018-Feb-16 10:29N 52°10' E 003°36'0 0.0
2018-Feb-16 09:59N 52°10' E 003°36'0 0.0
2018-Feb-16 09:29N 52°10' E 003°36'0 0.0
2018-Feb-16 08:59N 52°10' E 003°36'0 0.1
2018-Feb-16 08:29N 52°10' E 003°36'0 0.0
2018-Feb-16 07:56N 52°11' E 003°36'0 0.0
2018-Feb-16 03:08N 52°11' E 003°36'0 0.0
2018-Feb-16 02:56N 52°11' E 003°36'0 0.0
2018-Feb-15 22:38N 52°11' E 003°36'0 0.2
2018-Feb-15 22:29N 52°11' E 003°36'0 0.2
2018-Feb-15 21:59N 52°11' E 003°36'0 0.1
2018-Feb-15 21:29N 52°11' E 003°36'0 0.1
2018-Feb-15 20:59N 52°11' E 003°36'0 0.0
2018-Feb-15 20:29N 52°11' E 003°36'0 0.0
2018-Feb-15 19:59N 52°11' E 003°36'0 0.1
2018-Feb-15 19:29N 52°11' E 003°36'0 0.2
2018-Feb-15 18:56N 52°11' E 003°36'0 0.1
2018-Feb-15 17:41N 52°11' E 003°36'0 0.1
2018-Feb-15 17:26N 52°11' E 003°36'0 0.0
2018-Feb-15 16:59N 52°11' E 003°36'0 0.0
2018-Feb-15 16:29N 52°11' E 003°36'0 0.0
2018-Feb-15 15:59N 52°11' E 003°36'0 0.0
2018-Feb-15 15:26N 52°11' E 003°36'0 0.0
2018-Feb-15 12:08N 52°11' E 003°36'0 0.1
2018-Feb-15 10:41N 52°11' E 003°36'0 0.5
2018-Feb-15 10:29N 52°11' E 003°36'1 2.8
2018-Feb-15 10:00N 52°11' E 003°34'4 6.9
2018-Feb-15 09:25N 52°07' E 003°34'611.9
2018-Feb-15 08:53N 52°05' E 003°44'411.8
2018-Feb-15 08:31N 52°03' E 003°51'5 9.6
2018-Feb-15 08:00N 52°02' E 003°58'611.4
2018-Feb-15 07:31N 51°58' E 004°05'1 1.4
2018-Feb-15 07:00N 51°58' E 004°04'0 0.0
2018-Feb-15 06:30N 51°58' E 004°04'0 0.0
2018-Feb-15 06:00N 51°58' E 004°04'0 0.0
2018-Feb-15 05:30N 51°58' E 004°04'0 0.0
2018-Feb-15 04:57N 51°58' E 004°04'0 0.0
2018-Feb-15 04:30N 51°58' E 004°04'0 0.0
2018-Feb-15 03:57N 51°58' E 004°04'0 0.0
2018-Feb-15 03:21N 51°58' E 004°04'0 0.0
2018-Feb-15 03:00N 51°58' E 004°04'0 0.0
2018-Feb-15 02:30N 51°58' E 004°04'0 0.0
2018-Feb-15 01:57N 51°58' E 004°04'0 0.0
2018-Feb-15 01:27N 51°58' E 004°04'0 0.0
2018-Feb-15 00:54N 51°58' E 004°04'0 0.0
2018-Feb-15 00:30N 51°58' E 004°04'0 0.0
2018-Feb-15 00:00N 51°58' E 004°04'0 0.0
2018-Feb-14 23:27N 51°58' E 004°04'0 0.0
2018-Feb-14 23:00N 51°58' E 004°04'0 0.0
2018-Feb-14 22:30N 51°58' E 004°04'0 0.0
2018-Feb-14 22:00N 51°58' E 004°04'0 0.0
2018-Feb-14 21:30N 51°58' E 004°04'0 0.0
2018-Feb-14 21:00N 51°58' E 004°04'0 0.0
2018-Feb-14 20:30N 51°58' E 004°04'0 0.0
2018-Feb-14 20:00N 51°58' E 004°04'0 0.0
2018-Feb-14 19:30N 51°58' E 004°04'0 0.0
2018-Feb-14 19:00N 51°58' E 004°04'0 0.0
2018-Feb-14 18:30N 51°58' E 004°04'0 0.0
2018-Feb-14 18:00N 51°58' E 004°04'0 0.0
2018-Feb-14 17:30N 51°58' E 004°04'0 0.0
2018-Feb-14 17:00N 51°58' E 004°04'0 0.0
2018-Feb-14 16:30N 51°58' E 004°04'0 0.0
2018-Feb-14 16:00N 51°58' E 004°04'0 0.0
2018-Feb-14 15:30N 51°58' E 004°04'0 0.0
2018-Feb-14 15:00N 51°58' E 004°04'0 0.0
2018-Feb-14 14:30N 51°58' E 004°04'0 0.0
2018-Feb-14 14:00N 51°58' E 004°04'0 0.0
2018-Feb-14 13:27N 51°58' E 004°04'0 0.0
2018-Feb-14 13:00N 51°58' E 004°04'0 0.0
2018-Feb-14 12:27N 51°58' E 004°04'0 0.0
2018-Feb-14 11:57N 51°58' E 004°04'0 0.0
2018-Feb-14 11:30N 51°58' E 004°04'0 0.0
2018-Feb-14 11:00N 51°58' E 004°04'0 0.0
2018-Feb-14 10:30N 51°58' E 004°04'0 0.0
2018-Feb-14 10:00N 51°58' E 004°04'0 0.0
2018-Feb-14 09:30N 51°58' E 004°04'0 0.0
2018-Feb-14 08:57N 51°58' E 004°04'0 0.0
2018-Feb-14 08:30N 51°58' E 004°04'0 0.0
2018-Feb-14 08:00N 51°58' E 004°04'0 0.0
2018-Feb-14 07:30N 51°58' E 004°04'0 0.0
2018-Feb-14 06:54N 51°58' E 004°04'0 0.0
2018-Feb-14 06:30N 51°58' E 004°04'0 0.0
2018-Feb-14 06:00N 51°58' E 004°04'0 0.0
2018-Feb-14 05:30N 51°58' E 004°04'0 0.0
2018-Feb-14 05:00N 51°58' E 004°04'0 0.0
2018-Feb-14 04:30N 51°58' E 004°04'0 0.0
2018-Feb-14 04:00N 51°58' E 004°04'0 0.0
2018-Feb-14 03:27N 51°58' E 004°04'0 0.0
2018-Feb-14 02:57N 51°58' E 004°04'0 0.0
2018-Feb-14 02:30N 51°58' E 004°04'0 0.0
2018-Feb-14 02:00N 51°58' E 004°04'0 0.0
2018-Feb-14 01:30N 51°58' E 004°04'0 0.0
2018-Feb-14 01:00N 51°58' E 004°04'0 0.0
2018-Feb-14 00:30N 51°58' E 004°04'0 0.0
2018-Feb-13 23:57N 51°58' E 004°04'0 0.0
2018-Feb-13 23:27N 51°58' E 004°04'0 0.0
2018-Feb-13 23:00N 51°58' E 004°04'0 0.0
2018-Feb-13 22:27N 51°58' E 004°04'0 0.0
2018-Feb-13 22:00N 51°58' E 004°04'0 0.0
2018-Feb-13 21:30N 51°58' E 004°04'0 0.0
2018-Feb-13 21:00N 51°58' E 004°04'0 0.0
2018-Feb-13 20:27N 51°58' E 004°04'0 0.0
2018-Feb-13 20:00N 51°58' E 004°04'0 0.0
2018-Feb-13 19:27N 51°58' E 004°04'0 0.0
2018-Feb-13 18:57N 51°58' E 004°04'0 0.0
2018-Feb-13 18:30N 51°58' E 004°04'0 0.0
2018-Feb-13 18:00N 51°58' E 004°04'0 0.0
2018-Feb-13 17:30N 51°58' E 004°04'0 0.0
2018-Feb-13 17:00N 51°58' E 004°04'0 0.0
2018-Feb-13 16:24N 51°58' E 004°04'0 0.0
2018-Feb-13 16:00N 51°58' E 004°04'0 0.0
2018-Feb-13 15:30N 51°58' E 004°04'0 0.0
2018-Feb-13 14:54N 51°58' E 004°04'0 0.0
2018-Feb-13 14:30N 51°58' E 004°04'1 1.3
2018-Feb-13 14:01N 51°58' E 004°05'3 5.8
2018-Feb-13 13:30N 51°60' E 004°01'510.5
2018-Feb-13 13:00N 52°00' E 003°53'4 7.9
2018-Feb-13 12:30N 51°59' E 003°47'3 5.8
2018-Feb-13 12:00N 51°59' E 003°42'3 6.3
2018-Feb-13 11:30N 51°58' E 003°37'2 0.4
2018-Feb-13 07:22N 51°56' E 003°37'0 0.2
2018-Feb-13 06:55N 51°56' E 003°37'0 0.2
2018-Feb-13 06:25N 51°56' E 003°37'0 0.3
2018-Feb-13 05:58N 51°56' E 003°37'0 0.2
2018-Feb-13 05:25N 51°56' E 003°37'0 0.1
2018-Feb-13 04:58N 51°56' E 003°37'0 0.0
2018-Feb-13 04:28N 51°56' E 003°37'0 0.0
2018-Feb-13 03:58N 51°56' E 003°37'0 0.0
2018-Feb-13 03:25N 51°56' E 003°37'0 0.0
2018-Feb-12 21:10N 51°56' E 003°37'0 0.1
2018-Feb-12 20:58N 51°56' E 003°37'0 0.0
2018-Feb-12 18:25N 51°56' E 003°37'0 0.1
2018-Feb-12 17:58N 51°56' E 003°37'0 0.2
2018-Feb-12 17:10N 51°56' E 003°37'0 0.0
2018-Feb-12 08:04N 51°56' E 003°37'0 0.1
2018-Feb-12 07:58N 51°56' E 003°37'0 0.1
2018-Feb-12 07:01N 51°56' E 003°37'0 0.0
2018-Feb-12 06:55N 51°56' E 003°37'0 0.1
2018-Feb-12 04:01N 51°56' E 003°37'0 0.1
2018-Feb-12 03:52N 51°56' E 003°37'0 0.0
2018-Feb-11 17:25N 51°56' E 003°37'0 0.0
2018-Feb-11 07:57N 51°56' E 003°37'  

Dump ship's entire track history